createdAt,value
2023-05-21T00:00:43.181Z,100.00
2023-05-21T00:03:46.273Z,100.00
2023-05-21T00:06:47.963Z,100.00
2023-05-21T00:09:49.538Z,100.00
2023-05-21T00:12:51.095Z,100.00
2023-05-21T00:15:52.692Z,100.00
2023-05-21T00:18:55.264Z,100.00
2023-05-21T00:21:57.685Z,100.00
2023-05-21T00:24:59.749Z,100.00
2023-05-21T00:28:01.313Z,100.00
2023-05-21T00:31:02.897Z,100.00
2023-05-21T00:34:04.518Z,100.00
2023-05-21T00:37:06.272Z,100.00
2023-05-21T00:40:09.264Z,100.00
2023-05-21T00:43:10.763Z,100.00
2023-05-21T00:46:16.727Z,100.00
2023-05-21T00:49:18.944Z,100.00
2023-05-21T00:52:21.587Z,100.00
2023-05-21T00:55:23.352Z,100.00
2023-05-21T00:58:25.132Z,100.00
2023-05-21T01:01:26.922Z,100.00
2023-05-21T01:04:28.941Z,100.00
2023-05-21T01:07:30.716Z,100.00
2023-05-21T01:10:32.564Z,100.00
2023-05-21T01:13:38.962Z,100.00
2023-05-21T01:16:42.676Z,100.00
2023-05-21T01:19:44.769Z,100.00
2023-05-21T01:22:52.106Z,100.00
2023-05-21T01:25:53.706Z,100.00
2023-05-21T01:28:55.222Z,100.00
2023-05-21T01:32:16.363Z,100.00
2023-05-21T01:35:26.207Z,100.00
2023-05-21T01:38:43.723Z,100.00
2023-05-21T01:41:46.180Z,100.00
2023-05-21T01:44:49.193Z,100.00
2023-05-21T01:47:54.002Z,100.00
2023-05-21T01:50:59.356Z,100.00
2023-05-21T01:54:01.614Z,100.00
2023-05-21T01:57:03.818Z,100.00
2023-05-21T02:00:06.263Z,100.00
2023-05-21T02:03:18.466Z,100.00
2023-05-21T02:06:20.083Z,100.00
2023-05-21T02:09:21.635Z,100.00
2023-05-21T02:12:23.464Z,100.00
2023-05-21T02:15:25.760Z,100.00
2023-05-21T02:18:29.308Z,100.00
2023-05-21T02:21:31.207Z,100.00
2023-05-21T02:24:33.168Z,100.00
2023-05-21T02:27:38.944Z,100.00
2023-05-21T02:30:40.529Z,100.00
2023-05-21T02:33:42.140Z,100.00
2023-05-21T02:36:43.755Z,100.00
2023-05-21T02:39:45.870Z,100.00
2023-05-21T02:42:47.503Z,100.00
2023-05-21T02:45:54.460Z,100.00
2023-05-21T02:48:56.356Z,100.00
2023-05-21T02:51:58.069Z,100.00
2023-05-21T02:54:59.607Z,100.00
2023-05-21T02:58:01.204Z,100.00
2023-05-21T03:01:02.798Z,100.00
2023-05-21T03:04:04.654Z,100.00
2023-05-21T03:07:06.323Z,100.00
2023-05-21T03:10:08.150Z,100.00
2023-05-21T03:13:10.063Z,100.00
2023-05-21T03:16:12.345Z,100.00
2023-05-21T03:19:13.918Z,100.00
2023-05-21T03:22:15.951Z,100.00
2023-05-21T03:25:17.519Z,100.00
2023-05-21T03:28:19.203Z,100.00
2023-05-21T03:31:23.889Z,100.00
2023-05-21T03:34:38.116Z,100.00
2023-05-21T03:37:39.696Z,100.00
2023-05-21T03:40:41.304Z,100.00
2023-05-21T03:43:42.906Z,100.00
2023-05-21T03:46:45.662Z,100.00
2023-05-21T03:49:56.811Z,100.00
2023-05-21T03:52:58.488Z,100.00
2023-05-21T03:56:00.008Z,100.00
2023-05-21T03:59:01.836Z,100.00
2023-05-21T04:02:05.047Z,100.00
2023-05-21T04:05:07.136Z,100.00
2023-05-21T04:08:09.040Z,100.00
2023-05-21T04:11:11.300Z,100.00
2023-05-21T04:14:13.153Z,100.00
2023-05-21T04:17:14.720Z,100.00
2023-05-21T04:20:17.035Z,100.00
2023-05-21T04:23:19.244Z,100.00
2023-05-21T04:26:21.237Z,100.00
2023-05-21T04:29:22.958Z,100.00
2023-05-21T04:32:25.348Z,100.00
2023-05-21T04:35:27.209Z,100.00
2023-05-21T04:38:28.753Z,100.00
2023-05-21T04:41:30.336Z,100.00
2023-05-21T04:44:31.940Z,100.00
2023-05-21T04:47:35.589Z,100.00
2023-05-21T04:50:39.002Z,100.00
2023-05-21T04:53:40.529Z,100.00
2023-05-21T04:56:42.532Z,100.00
2023-05-21T04:59:44.121Z,100.00
2023-05-21T05:02:46.368Z,100.00
2023-05-21T05:05:48.042Z,100.00
2023-05-21T05:08:49.565Z,100.00
2023-05-21T05:11:51.669Z,100.00
2023-05-21T05:14:53.347Z,100.00
2023-05-21T05:17:55.008Z,100.00
2023-05-21T05:20:56.624Z,100.00
2023-05-21T05:23:58.980Z,100.00
2023-05-21T05:27:03.273Z,100.00
2023-05-21T05:30:05.878Z,100.00
2023-05-21T05:33:07.776Z,100.00
2023-05-21T05:36:09.497Z,100.00
2023-05-21T05:39:11.831Z,100.00
2023-05-21T05:42:14.320Z,100.00
2023-05-21T05:45:16.080Z,100.00
2023-05-21T05:48:17.734Z,100.00
2023-05-21T05:51:19.294Z,100.00
2023-05-21T05:54:20.985Z,100.00
2023-05-21T05:57:22.621Z,100.00
2023-05-21T06:00:26.818Z,100.00
2023-05-21T06:03:29.789Z,100.00
2023-05-21T06:06:34.716Z,100.00
2023-05-21T06:09:36.483Z,100.00
2023-05-21T06:12:38.476Z,100.00
2023-05-21T06:15:43.164Z,100.00
2023-05-21T06:18:44.849Z,100.00
2023-05-21T06:21:46.633Z,99.88
2023-05-21T06:24:48.170Z,99.85
2023-05-21T06:27:50.881Z,99.34
2023-05-21T06:30:58.104Z,98.46
2023-05-21T06:34:01.376Z,97.84
2023-05-21T06:37:03.223Z,96.07
2023-05-21T06:40:05.422Z,95.53
2023-05-21T06:43:07.357Z,95.82
2023-05-21T06:46:12.048Z,95.76
2023-05-21T06:49:15.235Z,96.16
2023-05-21T06:52:17.973Z,96.37
2023-05-21T06:55:19.703Z,96.48
2023-05-21T06:58:46.997Z,95.50
2023-05-21T07:01:50.995Z,96.46
2023-05-21T07:04:53.726Z,93.29
2023-05-21T07:07:55.321Z,91.89
2023-05-21T07:10:56.924Z,90.53
2023-05-21T07:14:03.818Z,90.80
2023-05-21T07:17:07.876Z,91.39
2023-05-21T07:20:11.599Z,91.89
2023-05-21T07:23:16.098Z,91.19
2023-05-21T07:26:17.775Z,91.25
2023-05-21T07:29:19.865Z,90.27
2023-05-21T07:32:21.676Z,89.63
2023-05-21T07:35:23.452Z,90.50
2023-05-21T07:38:26.260Z,89.26
2023-05-21T07:41:28.192Z,88.71
2023-05-21T07:44:31.906Z,88.54
2023-05-21T07:47:33.651Z,88.38
2023-05-21T07:50:35.749Z,88.25
2023-05-21T07:53:37.787Z,87.96
2023-05-21T07:56:43.459Z,87.54
2023-05-21T07:59:55.240Z,86.41
2023-05-21T08:02:57.230Z,86.62
2023-05-21T08:06:00.643Z,86.34
2023-05-21T08:09:02.184Z,86.08
2023-05-21T08:12:04.442Z,85.07
2023-05-21T08:15:06.778Z,83.17
2023-05-21T08:18:12.609Z,82.70
2023-05-21T08:21:17.186Z,81.95
2023-05-21T08:24:18.964Z,81.14
2023-05-21T08:27:21.298Z,81.37
2023-05-21T08:30:23.007Z,80.50
2023-05-21T08:33:25.771Z,80.38
2023-05-21T08:36:27.404Z,80.78
2023-05-21T08:39:34.209Z,81.10
2023-05-21T08:42:51.138Z,79.40
2023-05-21T08:46:16.689Z,79.16
2023-05-21T08:49:25.750Z,79.02
2023-05-21T08:52:31.506Z,79.04
2023-05-21T08:55:33.483Z,78.65
2023-05-21T08:58:36.553Z,78.49
2023-05-21T09:01:42.347Z,78.46
2023-05-21T09:04:57.400Z,78.84
2023-05-21T09:08:46.700Z,78.37
2023-05-21T09:11:56.473Z,78.00
2023-05-21T09:15:00.231Z,78.05
2023-05-21T09:18:06.675Z,77.91
2023-05-21T09:21:31.481Z,77.41
2023-05-21T09:24:37.669Z,77.58
2023-05-21T09:27:40.604Z,77.02
2023-05-21T09:30:49.553Z,76.43
2023-05-21T09:33:51.258Z,76.29
2023-05-21T09:36:57.359Z,76.02
2023-05-21T09:39:59.983Z,75.96
2023-05-21T09:43:01.886Z,75.86
2023-05-21T09:46:03.712Z,75.45
2023-05-21T09:49:21.895Z,75.89
2023-05-21T09:52:25.338Z,74.97
2023-05-21T09:55:28.457Z,74.60
2023-05-21T09:58:30.095Z,74.53
2023-05-21T10:01:33.936Z,74.41
2023-05-21T10:04:35.831Z,74.00
2023-05-21T10:07:38.837Z,73.79
2023-05-21T10:10:43.767Z,73.30
2023-05-21T10:13:51.567Z,73.09
2023-05-21T10:16:54.523Z,72.79
2023-05-21T10:19:56.702Z,72.41
2023-05-21T10:22:59.021Z,71.89
2023-05-21T10:26:00.732Z,72.30
2023-05-21T10:29:02.820Z,71.52
2023-05-21T10:32:05.871Z,71.43
2023-05-21T10:35:09.111Z,70.63
2023-05-21T10:38:13.295Z,70.29
2023-05-21T10:41:20.025Z,69.92
2023-05-21T10:45:16.037Z,68.85
2023-05-21T10:48:44.334Z,68.96
2023-05-21T10:52:18.419Z,69.11
2023-05-21T10:55:47.169Z,68.87
2023-05-21T10:59:18.356Z,68.08
2023-05-21T11:02:20.970Z,67.70
2023-05-21T11:05:50.810Z,66.97
2023-05-21T11:08:55.951Z,66.09
2023-05-21T11:11:58.857Z,66.01
2023-05-21T11:15:00.632Z,65.42
2023-05-21T11:18:02.217Z,64.79
2023-05-21T11:21:10.172Z,64.88
2023-05-21T11:24:19.341Z,64.71
2023-05-21T11:27:41.714Z,63.41
2023-05-21T11:30:43.359Z,63.05
2023-05-21T11:33:47.638Z,63.51
2023-05-21T11:36:49.890Z,62.99
2023-05-21T11:39:51.809Z,62.76
2023-05-21T11:42:55.428Z,62.28
2023-05-21T11:45:57.295Z,62.57
2023-05-21T11:48:59.323Z,62.47
2023-05-21T11:52:01.486Z,62.22
2023-05-21T11:55:04.291Z,61.48
2023-05-21T11:58:08.621Z,61.63
2023-05-21T12:01:27.725Z,61.56
2023-05-21T12:04:30.439Z,61.07
2023-05-21T12:07:31.994Z,62.12
2023-05-21T12:10:33.504Z,61.49
2023-05-21T12:13:35.081Z,62.46
2023-05-21T12:16:37.349Z,62.80
2023-05-21T12:19:39.485Z,61.68
2023-05-21T12:22:42.613Z,61.28
2023-05-21T12:25:44.119Z,62.22
2023-05-21T12:28:45.791Z,63.03
2023-05-21T12:31:50.729Z,64.97
2023-05-21T12:34:54.579Z,66.24
2023-05-21T12:37:56.755Z,67.26
2023-05-21T12:41:07.433Z,67.30
2023-05-21T12:44:09.046Z,66.87
2023-05-21T12:47:11.712Z,66.40
2023-05-21T12:50:13.974Z,65.97
2023-05-21T12:53:15.640Z,65.85
2023-05-21T12:56:17.277Z,66.25
2023-05-21T12:59:18.847Z,66.04
2023-05-21T13:02:44.342Z,65.92
2023-05-21T13:05:46.739Z,65.83
2023-05-21T13:08:48.295Z,65.00
2023-05-21T13:11:49.848Z,64.45
2023-05-21T13:14:53.043Z,64.06
2023-05-21T13:17:56.745Z,63.27
2023-05-21T13:20:58.754Z,62.10
2023-05-21T13:24:00.265Z,61.52
2023-05-21T13:27:01.835Z,61.16
2023-05-21T13:30:03.838Z,60.35
2023-05-21T13:33:06.476Z,59.71
2023-05-21T13:36:08.168Z,58.10
2023-05-21T13:39:09.852Z,57.85
2023-05-21T13:42:11.445Z,57.92
2023-05-21T13:45:15.060Z,57.09
2023-05-21T13:48:16.871Z,57.00
2023-05-21T13:51:37.129Z,57.20
2023-05-21T13:54:40.499Z,57.27
2023-05-21T13:57:42.259Z,57.24
2023-05-21T14:00:43.773Z,57.28
2023-05-21T14:03:45.393Z,57.64
2023-05-21T14:06:47.770Z,57.33
2023-05-21T14:09:49.578Z,56.84
2023-05-21T14:12:51.564Z,55.92
2023-05-21T14:15:53.093Z,54.56
2023-05-21T14:18:55.447Z,52.82
2023-05-21T14:21:57.038Z,51.53
2023-05-21T14:24:58.602Z,49.90
2023-05-21T14:28:00.159Z,50.25
2023-05-21T14:31:01.719Z,50.71
2023-05-21T14:34:03.700Z,51.10
2023-05-21T14:37:05.502Z,51.42
2023-05-21T14:40:07.982Z,51.32
2023-05-21T14:43:09.608Z,51.01
2023-05-21T14:46:11.189Z,51.29
2023-05-21T14:49:13.234Z,51.18
2023-05-21T14:52:14.784Z,51.25
2023-05-21T14:55:18.337Z,50.79
2023-05-21T14:58:19.920Z,50.71
2023-05-21T15:01:21.580Z,51.12
2023-05-21T15:04:23.316Z,51.67
2023-05-21T15:07:24.825Z,52.18
2023-05-21T15:10:27.435Z,54.00
2023-05-21T15:13:29.057Z,55.54
2023-05-21T15:16:31.239Z,56.25
2023-05-21T15:19:32.965Z,57.78
2023-05-21T15:22:35.186Z,59.35
2023-05-21T15:25:36.909Z,60.83
2023-05-21T15:28:38.683Z,61.13
2023-05-21T15:31:40.346Z,59.95
2023-05-21T15:34:41.972Z,58.59
2023-05-21T15:37:45.304Z,57.75
2023-05-21T15:40:47.541Z,57.40
2023-05-21T15:43:49.236Z,57.75
2023-05-21T15:46:51.294Z,57.69
2023-05-21T15:49:52.830Z,58.67
2023-05-21T15:52:54.404Z,59.89
2023-05-21T15:55:56.674Z,60.91
2023-05-21T15:59:01.171Z,62.89
2023-05-21T16:02:02.756Z,64.71
2023-05-21T16:05:04.444Z,66.36
2023-05-21T16:08:06.148Z,68.13
2023-05-21T16:11:09.030Z,70.02
2023-05-21T16:14:11.493Z,71.72
2023-05-21T16:17:13.053Z,73.30
2023-05-21T16:20:14.738Z,75.72
2023-05-21T16:23:16.302Z,78.49
2023-05-21T16:26:17.906Z,80.34
2023-05-21T16:29:19.403Z,81.96
2023-05-21T16:32:21.256Z,83.86
2023-05-21T16:35:22.955Z,85.91
2023-05-21T16:38:24.456Z,87.67
2023-05-21T16:41:26.126Z,89.70
2023-05-21T16:44:27.615Z,93.21
2023-05-21T16:47:29.218Z,95.77
2023-05-21T16:50:30.840Z,98.61
2023-05-21T16:53:32.368Z,99.99
2023-05-21T16:56:33.940Z,100.00
2023-05-21T16:59:35.475Z,100.00
2023-05-21T17:02:38.242Z,100.00
2023-05-21T17:05:39.924Z,100.00
2023-05-21T17:08:42.428Z,100.00
2023-05-21T17:11:44.065Z,100.00
2023-05-21T17:14:45.699Z,100.00
2023-05-21T17:17:47.419Z,100.00
2023-05-21T17:20:49.066Z,100.00
2023-05-21T17:23:50.743Z,100.00
2023-05-21T17:26:53.301Z,100.00
2023-05-21T17:29:54.894Z,100.00
2023-05-21T17:32:58.179Z,100.00
2023-05-21T17:36:01.260Z,100.00
2023-05-21T17:39:03.073Z,100.00
2023-05-21T17:42:04.862Z,100.00
2023-05-21T17:45:07.127Z,100.00
2023-05-21T17:48:08.696Z,100.00
2023-05-21T17:51:11.042Z,100.00
2023-05-21T17:54:12.630Z,100.00
2023-05-21T17:57:16.009Z,100.00
2023-05-21T18:00:17.880Z,100.00
2023-05-21T18:03:19.368Z,100.00
2023-05-21T18:06:20.997Z,100.00
2023-05-21T18:09:22.798Z,100.00
2023-05-21T18:12:24.312Z,100.00
2023-05-21T18:15:25.868Z,100.00
2023-05-21T18:18:27.368Z,100.00
2023-05-21T18:21:28.882Z,100.00
2023-05-21T18:24:30.576Z,100.00
2023-05-21T18:27:32.123Z,100.00
2023-05-21T18:30:34.246Z,100.00
2023-05-21T18:33:35.877Z,100.00
2023-05-21T18:36:40.131Z,100.00
2023-05-21T18:39:41.713Z,100.00
2023-05-21T18:42:43.190Z,100.00
2023-05-21T18:45:45.305Z,100.00
2023-05-21T18:48:48.531Z,100.00
2023-05-21T18:51:50.563Z,100.00
2023-05-21T18:54:52.092Z,100.00
2023-05-21T18:57:55.559Z,100.00
2023-05-21T19:00:57.118Z,100.00
2023-05-21T19:03:58.690Z,100.00
2023-05-21T19:07:00.370Z,100.00
2023-05-21T19:10:02.445Z,100.00
2023-05-21T19:13:06.142Z,100.00
2023-05-21T19:16:10.976Z,100.00
2023-05-21T19:19:12.745Z,100.00
2023-05-21T19:22:15.010Z,100.00
2023-05-21T19:25:16.629Z,100.00
2023-05-21T19:28:18.988Z,100.00
2023-05-21T19:31:21.442Z,100.00
2023-05-21T19:34:23.401Z,100.00
2023-05-21T19:37:24.944Z,100.00
2023-05-21T19:40:26.458Z,100.00
2023-05-21T19:43:28.245Z,100.00
2023-05-21T19:46:30.978Z,100.00
2023-05-21T19:49:32.577Z,100.00
2023-05-21T19:52:34.135Z,100.00
2023-05-21T19:55:37.391Z,100.00
2023-05-21T19:58:39.030Z,100.00
2023-05-21T20:01:43.257Z,100.00
2023-05-21T20:04:44.838Z,100.00
2023-05-21T20:07:46.509Z,100.00
2023-05-21T20:10:50.560Z,100.00
2023-05-21T20:13:53.620Z,100.00
2023-05-21T20:16:58.390Z,100.00
2023-05-21T20:20:01.256Z,100.00
2023-05-21T20:23:03.320Z,100.00
2023-05-21T20:26:04.926Z,100.00
2023-05-21T20:29:07.897Z,100.00
2023-05-21T20:32:09.402Z,100.00
2023-05-21T20:35:10.974Z,100.00
2023-05-21T20:38:12.693Z,100.00
2023-05-21T20:41:14.279Z,100.00
2023-05-21T20:44:15.964Z,100.00
2023-05-21T20:47:18.158Z,100.00
2023-05-21T20:50:21.635Z,100.00
2023-05-21T20:53:24.059Z,100.00
2023-05-21T20:56:40.035Z,100.00
2023-05-21T20:59:43.240Z,100.00
2023-05-21T21:02:45.105Z,100.00
2023-05-21T21:05:47.373Z,100.00
2023-05-21T21:08:50.170Z,100.00
2023-05-21T21:11:51.774Z,100.00
2023-05-21T21:14:53.630Z,100.00
2023-05-21T21:17:55.207Z,100.00
2023-05-21T21:20:57.024Z,100.00
2023-05-21T21:23:58.557Z,100.00
2023-05-21T21:27:00.192Z,100.00
2023-05-21T21:30:02.170Z,100.00
2023-05-21T21:33:03.851Z,100.00
2023-05-21T21:36:06.302Z,100.00
2023-05-21T21:39:07.891Z,100.00
2023-05-21T21:42:09.605Z,100.00
2023-05-21T21:45:11.410Z,100.00
2023-05-21T21:48:13.018Z,100.00
2023-05-21T21:51:15.572Z,100.00
2023-05-21T21:54:17.122Z,100.00
2023-05-21T21:57:18.599Z,100.00
2023-05-21T22:00:20.937Z,100.00
2023-05-21T22:03:22.532Z,100.00
2023-05-21T22:06:23.997Z,100.00
2023-05-21T22:09:25.533Z,100.00
2023-05-21T22:12:28.868Z,100.00
2023-05-21T22:15:32.166Z,100.00
2023-05-21T22:18:40.822Z,100.00
2023-05-21T22:21:43.209Z,100.00
2023-05-21T22:24:44.712Z,100.00
2023-05-21T22:27:46.234Z,100.00
2023-05-21T22:30:47.791Z,100.00
2023-05-21T22:33:49.288Z,100.00
2023-05-21T22:36:51.503Z,100.00
2023-05-21T22:39:53.114Z,100.00
2023-05-21T22:42:54.654Z,100.00
2023-05-21T22:45:56.130Z,100.00
2023-05-21T22:48:58.117Z,100.00
2023-05-21T22:52:05.037Z,100.00
2023-05-21T22:55:07.845Z,100.00
2023-05-21T22:58:09.379Z,100.00
2023-05-21T23:01:11.172Z,100.00
2023-05-21T23:04:13.972Z,100.00
2023-05-21T23:07:15.977Z,100.00
2023-05-21T23:10:17.562Z,100.00
2023-05-21T23:13:19.078Z,100.00
2023-05-21T23:16:22.632Z,100.00
2023-05-21T23:19:24.253Z,100.00
2023-05-21T23:22:26.252Z,100.00
2023-05-21T23:25:27.748Z,100.00
2023-05-21T23:28:29.255Z,100.00
2023-05-21T23:31:31.569Z,100.00
2023-05-21T23:34:33.643Z,100.00
2023-05-21T23:37:35.171Z,100.00
2023-05-21T23:40:37.193Z,100.00
2023-05-21T23:43:38.949Z,100.00
2023-05-21T23:46:40.523Z,100.00
2023-05-21T23:49:42.062Z,100.00
2023-05-21T23:52:43.848Z,100.00
2023-05-21T23:55:45.475Z,100.00
2023-05-21T23:58:46.959Z,100.00
